sensor_id;sensor_type;location;lat;lon;timestamp;P1;durP1;ratioP1;P2;durP2;ratioP2
74204;SDS011;62564;52.678;4.900;2023-05-23T00:00:17;8.10;;;5.60;;
74204;SDS011;62564;52.678;4.900;2023-05-23T00:02:42;7.95;;;4.63;;
74204;SDS011;62564;52.678;4.900;2023-05-23T00:05:08;7.72;;;3.95;;
74204;SDS011;62564;52.678;4.900;2023-05-23T00:07:34;8.55;;;4.97;;
74204;SDS011;62564;52.678;4.900;2023-05-23T00:09:59;8.65;;;5.53;;
74204;SDS011;62564;52.678;4.900;2023-05-23T00:12:24;6.80;;;4.20;;
74204;SDS011;62564;52.678;4.900;2023-05-23T00:14:51;7.32;;;5.03;;
74204;SDS011;62564;52.678;4.900;2023-05-23T00:17:17;6.47;;;3.95;;
74204;SDS011;62564;52.678;4.900;2023-05-23T00:19:43;7.13;;;4.40;;
74204;SDS011;62564;52.678;4.900;2023-05-23T00:22:10;8.90;;;4.93;;
74204;SDS011;62564;52.678;4.900;2023-05-23T00:24:36;7.32;;;4.57;;
74204;SDS011;62564;52.678;4.900;2023-05-23T00:27:01;7.70;;;4.57;;
74204;SDS011;62564;52.678;4.900;2023-05-23T00:29:27;6.68;;;4.80;;
74204;SDS011;62564;52.678;4.900;2023-05-23T00:31:52;8.30;;;4.50;;
74204;SDS011;62564;52.678;4.900;2023-05-23T00:34:17;7.87;;;4.63;;
74204;SDS011;62564;52.678;4.900;2023-05-23T00:36:43;8.77;;;4.07;;
74204;SDS011;62564;52.678;4.900;2023-05-23T00:39:11;8.20;;;4.90;;
74204;SDS011;62564;52.678;4.900;2023-05-23T00:41:44;10.60;;;4.72;;
74204;SDS011;62564;52.678;4.900;2023-05-23T00:44:10;7.78;;;3.90;;
74204;SDS011;62564;52.678;4.900;2023-05-23T00:46:35;7.43;;;4.10;;
74204;SDS011;62564;52.678;4.900;2023-05-23T00:49:01;7.97;;;4.57;;
74204;SDS011;62564;52.678;4.900;2023-05-23T00:51:26;8.18;;;4.47;;
74204;SDS011;62564;52.678;4.900;2023-05-23T00:53:52;6.95;;;3.92;;
74204;SDS011;62564;52.678;4.900;2023-05-23T00:56:17;7.32;;;4.60;;
74204;SDS011;62564;52.678;4.900;2023-05-23T00:58:42;6.50;;;3.67;;
74204;SDS011;62564;52.678;4.900;2023-05-23T01:01:08;7.80;;;4.57;;
74204;SDS011;62564;52.678;4.900;2023-05-23T01:03:33;6.67;;;3.63;;
74204;SDS011;62564;52.678;4.900;2023-05-23T01:05:58;7.68;;;4.07;;
74204;SDS011;62564;52.678;4.900;2023-05-23T01:08:24;8.90;;;4.35;;
74204;SDS011;62564;52.678;4.900;2023-05-23T01:10:49;7.33;;;3.53;;
74204;SDS011;62564;52.678;4.900;2023-05-23T01:16:14;7.10;;;4.15;;
74204;SDS011;62564;52.678;4.900;2023-05-23T01:18:51;7.20;;;4.03;;
74204;SDS011;62564;52.678;4.900;2023-05-23T01:21:23;7.70;;;3.72;;
74204;SDS011;62564;52.678;4.900;2023-05-23T01:29:08;7.03;;;3.97;;
74204;SDS011;62564;52.678;4.900;2023-05-23T01:31:36;7.13;;;3.65;;
74204;SDS011;62564;52.678;4.900;2023-05-23T01:34:06;6.60;;;3.58;;
74204;SDS011;62564;52.678;4.900;2023-05-23T01:36:32;6.57;;;3.83;;
74204;SDS011;62564;52.678;4.900;2023-05-23T01:38:59;8.98;;;5.55;;
74204;SDS011;62564;52.678;4.900;2023-05-23T01:41:25;8.38;;;4.45;;
74204;SDS011;62564;52.678;4.900;2023-05-23T01:43:52;8.45;;;4.60;;
74204;SDS011;62564;52.678;4.900;2023-05-23T01:46:18;7.57;;;4.45;;
74204;SDS011;62564;52.678;4.900;2023-05-23T01:48:45;8.77;;;4.45;;
74204;SDS011;62564;52.678;4.900;2023-05-23T01:51:11;8.35;;;4.25;;
74204;SDS011;62564;52.678;4.900;2023-05-23T01:53:36;7.50;;;3.72;;
74204;SDS011;62564;52.678;4.900;2023-05-23T01:56:01;7.43;;;4.10;;
74204;SDS011;62564;52.678;4.900;2023-05-23T01:58:27;7.38;;;4.15;;
74204;SDS011;62564;52.678;4.900;2023-05-23T02:00:53;8.48;;;4.20;;
74204;SDS011;62564;52.678;4.900;2023-05-23T02:03:18;7.97;;;3.83;;
74204;SDS011;62564;52.678;4.900;2023-05-23T02:05:44;7.90;;;3.88;;
74204;SDS011;62564;52.678;4.900;2023-05-23T02:08:09;6.93;;;4.03;;
74204;SDS011;62564;52.678;4.900;2023-05-23T02:10:34;7.30;;;3.47;;
74204;SDS011;62564;52.678;4.900;2023-05-23T02:13:00;7.23;;;3.60;;
74204;SDS011;62564;52.678;4.900;2023-05-23T02:15:25;6.63;;;3.63;;
74204;SDS011;62564;52.678;4.900;2023-05-23T02:17:50;6.97;;;3.93;;
74204;SDS011;62564;52.678;4.900;2023-05-23T02:20:15;8.30;;;3.80;;
74204;SDS011;62564;52.678;4.900;2023-05-23T02:22:43;8.60;;;3.97;;
74204;SDS011;62564;52.678;4.900;2023-05-23T02:25:08;6.47;;;3.27;;
74204;SDS011;62564;52.678;4.900;2023-05-23T02:27:34;8.15;;;3.65;;
74204;SDS011;62564;52.678;4.900;2023-05-23T02:29:59;9.18;;;4.13;;
74204;SDS011;62564;52.678;4.900;2023-05-23T02:32:24;7.30;;;4.07;;
74204;SDS011;62564;52.678;4.900;2023-05-23T02:34:50;7.83;;;3.70;;
74204;SDS011;62564;52.678;4.900;2023-05-23T02:37:16;7.85;;;4.25;;
74204;SDS011;62564;52.678;4.900;2023-05-23T02:39:44;6.47;;;3.60;;
74204;SDS011;62564;52.678;4.900;2023-05-23T02:42:09;7.07;;;3.40;;
74204;SDS011;62564;52.678;4.900;2023-05-23T02:44:35;5.47;;;3.00;;
74204;SDS011;62564;52.678;4.900;2023-05-23T02:47:00;6.20;;;3.20;;
74204;SDS011;62564;52.678;4.900;2023-05-23T02:49:25;7.40;;;3.42;;
74204;SDS011;62564;52.678;4.900;2023-05-23T02:51:51;7.70;;;4.07;;
74204;SDS011;62564;52.678;4.900;2023-05-23T02:54:16;6.18;;;3.10;;
74204;SDS011;62564;52.678;4.900;2023-05-23T02:56:41;6.07;;;3.40;;
74204;SDS011;62564;52.678;4.900;2023-05-23T02:59:08;6.70;;;3.72;;
74204;SDS011;62564;52.678;4.900;2023-05-23T03:01:33;7.10;;;3.47;;
74204;SDS011;62564;52.678;4.900;2023-05-23T03:03:59;6.57;;;3.58;;
74204;SDS011;62564;52.678;4.900;2023-05-23T03:06:24;7.25;;;3.22;;
74204;SDS011;62564;52.678;4.900;2023-05-23T03:08:51;6.78;;;2.80;;
74204;SDS011;62564;52.678;4.900;2023-05-23T03:11:16;7.13;;;3.60;;
74204;SDS011;62564;52.678;4.900;2023-05-23T03:13:42;6.23;;;3.23;;
74204;SDS011;62564;52.678;4.900;2023-05-23T03:16:07;5.70;;;2.70;;
74204;SDS011;62564;52.678;4.900;2023-05-23T03:18:32;5.80;;;2.70;;
74204;SDS011;62564;52.678;4.900;2023-05-23T03:20:58;7.00;;;3.27;;
74204;SDS011;62564;52.678;4.900;2023-05-23T03:23:23;5.93;;;3.33;;
74204;SDS011;62564;52.678;4.900;2023-05-23T03:25:48;6.57;;;3.07;;
74204;SDS011;62564;52.678;4.900;2023-05-23T03:28:13;7.47;;;2.47;;
74204;SDS011;62564;52.678;4.900;2023-05-23T03:30:39;6.70;;;2.73;;
74204;SDS011;62564;52.678;4.900;2023-05-23T03:33:04;7.07;;;3.13;;
74204;SDS011;62564;52.678;4.900;2023-05-23T03:35:30;5.85;;;2.83;;
74204;SDS011;62564;52.678;4.900;2023-05-23T03:37:56;7.33;;;3.17;;
74204;SDS011;62564;52.678;4.900;2023-05-23T03:40:21;5.53;;;2.60;;
74204;SDS011;62564;52.678;4.900;2023-05-23T03:42:47;6.35;;;3.90;;
74204;SDS011;62564;52.678;4.900;2023-05-23T03:47:38;6.20;;;2.97;;
74204;SDS011;62564;52.678;4.900;2023-05-23T03:50:04;7.37;;;3.10;;
74204;SDS011;62564;52.678;4.900;2023-05-23T03:52:30;5.25;;;2.70;;
74204;SDS011;62564;52.678;4.900;2023-05-23T03:54:55;7.03;;;3.35;;
74204;SDS011;62564;52.678;4.900;2023-05-23T03:57:21;4.97;;;2.72;;
74204;SDS011;62564;52.678;4.900;2023-05-23T03:59:46;5.72;;;2.70;;
74204;SDS011;62564;52.678;4.900;2023-05-23T04:02:12;5.60;;;2.50;;
74204;SDS011;62564;52.678;4.900;2023-05-23T04:04:37;5.22;;;2.97;;
74204;SDS011;62564;52.678;4.900;2023-05-23T04:07:03;6.30;;;3.30;;
74204;SDS011;62564;52.678;4.900;2023-05-23T04:09:29;6.25;;;2.78;;
74204;SDS011;62564;52.678;4.900;2023-05-23T04:11:54;5.33;;;2.63;;
74204;SDS011;62564;52.678;4.900;2023-05-23T04:14:20;6.53;;;4.15;;
74204;SDS011;62564;52.678;4.900;2023-05-23T04:16:46;6.43;;;2.63;;
74204;SDS011;62564;52.678;4.900;2023-05-23T04:19:12;5.63;;;2.38;;
74204;SDS011;62564;52.678;4.900;2023-05-23T04:21:37;5.17;;;2.47;;
74204;SDS011;62564;52.678;4.900;2023-05-23T04:24:02;5.30;;;2.87;;
74204;SDS011;62564;52.678;4.900;2023-05-23T04:26:28;5.40;;;3.13;;
74204;SDS011;62564;52.678;4.900;2023-05-23T04:28:53;6.00;;;3.20;;
74204;SDS011;62564;52.678;4.900;2023-05-23T04:31:22;6.70;;;2.63;;
74204;SDS011;62564;52.678;4.900;2023-05-23T04:33:47;5.18;;;2.75;;
74204;SDS011;62564;52.678;4.900;2023-05-23T04:36:13;6.35;;;2.28;;
74204;SDS011;62564;52.678;4.900;2023-05-23T04:38:38;4.40;;;2.28;;
74204;SDS011;62564;52.678;4.900;2023-05-23T04:41:05;5.85;;;3.00;;
74204;SDS011;62564;52.678;4.900;2023-05-23T04:43:31;4.68;;;2.40;;
74204;SDS011;62564;52.678;4.900;2023-05-23T04:45:57;6.47;;;3.10;;
74204;SDS011;62564;52.678;4.900;2023-05-23T04:48:23;5.90;;;3.03;;
74204;SDS011;62564;52.678;4.900;2023-05-23T04:50:49;5.50;;;3.28;;
74204;SDS011;62564;52.678;4.900;2023-05-23T04:53:16;6.13;;;3.42;;
74204;SDS011;62564;52.678;4.900;2023-05-23T04:55:41;5.70;;;2.42;;
74204;SDS011;62564;52.678;4.900;2023-05-23T04:58:07;5.80;;;2.88;;
74204;SDS011;62564;52.678;4.900;2023-05-23T05:00:32;6.53;;;3.17;;
74204;SDS011;62564;52.678;4.900;2023-05-23T05:02:58;6.22;;;3.53;;
74204;SDS011;62564;52.678;4.900;2023-05-23T05:05:23;5.67;;;2.63;;
74204;SDS011;62564;52.678;4.900;2023-05-23T05:07:48;5.90;;;2.57;;
74204;SDS011;62564;52.678;4.900;2023-05-23T05:10:14;5.93;;;2.72;;
74204;SDS011;62564;52.678;4.900;2023-05-23T05:15:15;6.40;;;2.83;;
74204;SDS011;62564;52.678;4.900;2023-05-23T05:17:41;6.07;;;2.90;;
74204;SDS011;62564;52.678;4.900;2023-05-23T05:20:07;7.72;;;3.70;;
74204;SDS011;62564;52.678;4.900;2023-05-23T05:22:33;6.38;;;3.47;;
74204;SDS011;62564;52.678;4.900;2023-05-23T05:25:04;7.00;;;3.40;;
74204;SDS011;62564;52.678;4.900;2023-05-23T05:27:33;5.88;;;2.63;;
74204;SDS011;62564;52.678;4.900;2023-05-23T05:29:58;6.10;;;2.90;;
74204;SDS011;62564;52.678;4.900;2023-05-23T05:32:29;5.85;;;2.45;;
74204;SDS011;62564;52.678;4.900;2023-05-23T05:34:57;8.27;;;4.15;;
74204;SDS011;62564;52.678;4.900;2023-05-23T05:37:23;6.25;;;3.30;;
74204;SDS011;62564;52.678;4.900;2023-05-23T05:39:48;8.60;;;3.20;;
74204;SDS011;62564;52.678;4.900;2023-05-23T05:42:13;7.53;;;2.90;;
74204;SDS011;62564;52.678;4.900;2023-05-23T05:44:39;6.57;;;3.63;;
74204;SDS011;62564;52.678;4.900;2023-05-23T05:47:04;5.85;;;2.80;;
74204;SDS011;62564;52.678;4.900;2023-05-23T05:49:29;5.65;;;2.35;;
74204;SDS011;62564;52.678;4.900;2023-05-23T05:51:55;8.05;;;2.60;;
74204;SDS011;62564;52.678;4.900;2023-05-23T05:54:20;6.27;;;2.83;;
74204;SDS011;62564;52.678;4.900;2023-05-23T05:56:46;4.67;;;2.20;;
74204;SDS011;62564;52.678;4.900;2023-05-23T05:59:11;4.63;;;2.08;;
74204;SDS011;62564;52.678;4.900;2023-05-23T06:01:36;5.70;;;2.92;;
74204;SDS011;62564;52.678;4.900;2023-05-23T06:04:02;5.10;;;2.58;;
74204;SDS011;62564;52.678;4.900;2023-05-23T06:06:27;6.07;;;2.72;;
74204;SDS011;62564;52.678;4.900;2023-05-23T06:08:52;6.60;;;2.63;;
74204;SDS011;62564;52.678;4.900;2023-05-23T06:11:18;4.57;;;2.13;;
74204;SDS011;62564;52.678;4.900;2023-05-23T06:13:43;5.93;;;1.90;;
74204;SDS011;62564;52.678;4.900;2023-05-23T06:16:08;4.97;;;2.47;;
74204;SDS011;62564;52.678;4.900;2023-05-23T06:18:34;5.20;;;1.92;;
74204;SDS011;62564;52.678;4.900;2023-05-23T06:20:59;4.60;;;1.47;;
74204;SDS011;62564;52.678;4.900;2023-05-23T06:23:24;6.97;;;2.20;;
74204;SDS011;62564;52.678;4.900;2023-05-23T06:25:50;5.37;;;2.40;;
74204;SDS011;62564;52.678;4.900;2023-05-23T06:28:15;6.25;;;2.17;;
74204;SDS011;62564;52.678;4.900;2023-05-23T06:30:40;5.53;;;2.00;;
74204;SDS011;62564;52.678;4.900;2023-05-23T06:33:06;5.43;;;1.63;;
74204;SDS011;62564;52.678;4.900;2023-05-23T06:35:31;4.97;;;1.40;;
74204;SDS011;62564;52.678;4.900;2023-05-23T06:37:56;8.30;;;1.37;;
74204;SDS011;62564;52.678;4.900;2023-05-23T06:40:21;5.13;;;1.97;;
74204;SDS011;62564;52.678;4.900;2023-05-23T06:42:47;4.53;;;2.03;;
74204;SDS011;62564;52.678;4.900;2023-05-23T06:45:12;5.33;;;1.80;;
74204;SDS011;62564;52.678;4.900;2023-05-23T06:47:37;7.13;;;2.20;;
74204;SDS011;62564;52.678;4.900;2023-05-23T06:50:03;5.30;;;1.90;;
74204;SDS011;62564;52.678;4.900;2023-05-23T06:52:29;4.53;;;2.13;;
74204;SDS011;62564;52.678;4.900;2023-05-23T06:54:54;7.60;;;1.90;;
74204;SDS011;62564;52.678;4.900;2023-05-23T06:57:19;6.87;;;2.10;;
74204;SDS011;62564;52.678;4.900;2023-05-23T06:59:45;6.22;;;2.00;;
74204;SDS011;62564;52.678;4.900;2023-05-23T07:02:10;5.93;;;1.60;;
74204;SDS011;62564;52.678;4.900;2023-05-23T07:04:36;5.93;;;1.93;;
74204;SDS011;62564;52.678;4.900;2023-05-23T07:07:07;7.78;;;2.58;;
74204;SDS011;62564;52.678;4.900;2023-05-23T07:09:33;8.80;;;2.13;;
74204;SDS011;62564;52.678;4.900;2023-05-23T07:11:58;5.47;;;1.77;;
74204;SDS011;62564;52.678;4.900;2023-05-23T07:14:23;6.77;;;1.93;;
74204;SDS011;62564;52.678;4.900;2023-05-23T07:16:48;5.00;;;1.40;;
74204;SDS011;62564;52.678;4.900;2023-05-23T07:19:14;7.83;;;1.57;;
74204;SDS011;62564;52.678;4.900;2023-05-23T07:21:39;5.05;;;1.60;;
74204;SDS011;62564;52.678;4.900;2023-05-23T07:24:04;8.32;;;1.40;;
74204;SDS011;62564;52.678;4.900;2023-05-23T07:26:30;5.60;;;2.03;;
74204;SDS011;62564;52.678;4.900;2023-05-23T07:28:55;5.23;;;1.30;;
74204;SDS011;62564;52.678;4.900;2023-05-23T07:31:20;7.63;;;1.90;;
74204;SDS011;62564;52.678;4.900;2023-05-23T07:33:46;7.50;;;1.75;;
74204;SDS011;62564;52.678;4.900;2023-05-23T07:36:11;9.20;;;1.40;;
74204;SDS011;62564;52.678;4.900;2023-05-23T07:38:36;5.37;;;1.53;;
74204;SDS011;62564;52.678;4.900;2023-05-23T07:41:02;5.72;;;1.42;;
74204;SDS011;62564;52.678;4.900;2023-05-23T07:43:27;5.93;;;1.53;;
74204;SDS011;62564;52.678;4.900;2023-05-23T07:45:52;10.67;;;2.20;;
74204;SDS011;62564;52.678;4.900;2023-05-23T07:48:18;10.05;;;2.33;;
74204;SDS011;62564;52.678;4.900;2023-05-23T07:50:43;6.65;;;1.77;;
74204;SDS011;62564;52.678;4.900;2023-05-23T07:53:08;8.93;;;1.67;;
74204;SDS011;62564;52.678;4.900;2023-05-23T07:55:33;10.20;;;1.60;;
74204;SDS011;62564;52.678;4.900;2023-05-23T07:57:59;12.53;;;2.63;;
74204;SDS011;62564;52.678;4.900;2023-05-23T08:00:25;8.02;;;1.80;;
74204;SDS011;62564;52.678;4.900;2023-05-23T08:02:50;11.75;;;2.78;;
74204;SDS011;62564;52.678;4.900;2023-05-23T08:05:16;10.83;;;2.37;;
74204;SDS011;62564;52.678;4.900;2023-05-23T08:07:43;13.82;;;2.20;;
74204;SDS011;62564;52.678;4.900;2023-05-23T08:10:08;9.88;;;2.17;;
74204;SDS011;62564;52.678;4.900;2023-05-23T08:12:33;8.90;;;1.75;;
74204;SDS011;62564;52.678;4.900;2023-05-23T08:14:59;10.07;;;2.03;;
74204;SDS011;62564;52.678;4.900;2023-05-23T08:17:24;9.77;;;1.80;;
74204;SDS011;62564;52.678;4.900;2023-05-23T08:19:50;11.77;;;1.80;;
74204;SDS011;62564;52.678;4.900;2023-05-23T08:22:16;11.23;;;3.07;;
74204;SDS011;62564;52.678;4.900;2023-05-23T08:24:41;11.03;;;2.17;;
74204;SDS011;62564;52.678;4.900;2023-05-23T08:27:06;9.03;;;1.30;;
74204;SDS011;62564;52.678;4.900;2023-05-23T08:29:32;13.45;;;1.98;;
74204;SDS011;62564;52.678;4.900;2023-05-23T08:31:59;10.65;;;2.03;;
74204;SDS011;62564;52.678;4.900;2023-05-23T08:34:24;8.23;;;1.92;;
74204;SDS011;62564;52.678;4.900;2023-05-23T08:36:49;9.67;;;2.13;;
74204;SDS011;62564;52.678;4.900;2023-05-23T08:39:15;6.67;;;2.10;;
74204;SDS011;62564;52.678;4.900;2023-05-23T08:41:40;9.80;;;2.00;;
74204;SDS011;62564;52.678;4.900;2023-05-23T08:44:05;14.57;;;2.10;;
74204;SDS011;62564;52.678;4.900;2023-05-23T08:46:31;9.10;;;2.43;;
74204;SDS011;62564;52.678;4.900;2023-05-23T08:53:51;9.07;;;1.92;;
74204;SDS011;62564;52.678;4.900;2023-05-23T08:56:18;8.65;;;2.22;;
74204;SDS011;62564;52.678;4.900;2023-05-23T08:58:43;13.48;;;3.33;;
74204;SDS011;62564;52.678;4.900;2023-05-23T09:01:11;11.20;;;2.58;;
74204;SDS011;62564;52.678;4.900;2023-05-23T09:03:37;9.10;;;2.08;;
74204;SDS011;62564;52.678;4.900;2023-05-23T09:06:07;9.77;;;2.38;;
74204;SDS011;62564;52.678;4.900;2023-05-23T09:08:33;7.47;;;2.10;;
74204;SDS011;62564;52.678;4.900;2023-05-23T09:10:58;10.80;;;2.30;;
74204;SDS011;62564;52.678;4.900;2023-05-23T09:13:26;10.18;;;2.05;;
74204;SDS011;62564;52.678;4.900;2023-05-23T09:15:55;9.25;;;1.95;;
74204;SDS011;62564;52.678;4.900;2023-05-23T09:18:23;9.98;;;2.45;;
74204;SDS011;62564;52.678;4.900;2023-05-23T09:20:49;6.95;;;2.00;;
74204;SDS011;62564;52.678;4.900;2023-05-23T09:23:15;8.35;;;1.73;;
74204;SDS011;62564;52.678;4.900;2023-05-23T09:25:46;8.97;;;1.50;;
74204;SDS011;62564;52.678;4.900;2023-05-23T09:28:12;7.60;;;1.63;;
74204;SDS011;62564;52.678;4.900;2023-05-23T09:30:37;9.67;;;2.20;;
74204;SDS011;62564;52.678;4.900;2023-05-23T09:33:03;7.00;;;2.22;;
74204;SDS011;62564;52.678;4.900;2023-05-23T09:35:28;7.77;;;1.43;;
74204;SDS011;62564;52.678;4.900;2023-05-23T09:37:54;6.75;;;1.77;;
74204;SDS011;62564;52.678;4.900;2023-05-23T09:40:22;9.30;;;2.20;;
74204;SDS011;62564;52.678;4.900;2023-05-23T09:42:53;5.82;;;1.35;;
74204;SDS011;62564;52.678;4.900;2023-05-23T09:45:19;6.00;;;1.67;;
74204;SDS011;62564;52.678;4.900;2023-05-23T09:47:51;6.30;;;1.90;;
74204;SDS011;62564;52.678;4.900;2023-05-23T09:50:17;7.22;;;1.60;;
74204;SDS011;62564;52.678;4.900;2023-05-23T09:52:42;5.97;;;1.52;;
74204;SDS011;62564;52.678;4.900;2023-05-23T09:55:08;5.22;;;1.50;;
74204;SDS011;62564;52.678;4.900;2023-05-23T09:57:34;7.15;;;1.60;;
74204;SDS011;62564;52.678;4.900;2023-05-23T10:00:02;6.88;;;2.05;;
74204;SDS011;62564;52.678;4.900;2023-05-23T10:05:40;5.85;;;1.42;;
74204;SDS011;62564;52.678;4.900;2023-05-23T10:08:15;5.80;;;1.63;;
74204;SDS011;62564;52.678;4.900;2023-05-23T10:11:00;6.22;;;1.60;;
74204;SDS011;62564;52.678;4.900;2023-05-23T10:13:48;6.95;;;1.77;;
74204;SDS011;62564;52.678;4.900;2023-05-23T10:16:15;5.60;;;1.77;;
74204;SDS011;62564;52.678;4.900;2023-05-23T10:18:44;6.88;;;2.63;;
74204;SDS011;62564;52.678;4.900;2023-05-23T10:21:18;6.20;;;1.83;;
74204;SDS011;62564;52.678;4.900;2023-05-23T10:23:44;6.07;;;2.20;;
74204;SDS011;62564;52.678;4.900;2023-05-23T10:26:11;5.57;;;1.73;;
74204;SDS011;62564;52.678;4.900;2023-05-23T10:28:37;6.78;;;1.15;;
74204;SDS011;62564;52.678;4.900;2023-05-23T10:31:03;6.32;;;1.92;;
74204;SDS011;62564;52.678;4.900;2023-05-23T10:33:29;6.25;;;1.45;;
74204;SDS011;62564;52.678;4.900;2023-05-23T10:36:00;6.05;;;1.88;;
74204;SDS011;62564;52.678;4.900;2023-05-23T10:38:36;7.05;;;1.67;;
74204;SDS011;62564;52.678;4.900;2023-05-23T10:41:37;4.65;;;0.98;;
74204;SDS011;62564;52.678;4.900;2023-05-23T10:46:50;5.72;;;1.48;;
74204;SDS011;62564;52.678;4.900;2023-05-23T10:49:17;6.55;;;1.67;;
74204;SDS011;62564;52.678;4.900;2023-05-23T10:51:43;5.32;;;1.70;;
74204;SDS011;62564;52.678;4.900;2023-05-23T10:54:13;7.75;;;1.48;;
74204;SDS011;62564;52.678;4.900;2023-05-23T10:56:38;5.82;;;1.70;;
74204;SDS011;62564;52.678;4.900;2023-05-23T10:59:04;6.20;;;2.10;;
74204;SDS011;62564;52.678;4.900;2023-05-23T11:01:37;5.55;;;1.83;;
74204;SDS011;62564;52.678;4.900;2023-05-23T11:04:06;7.30;;;1.75;;
74204;SDS011;62564;52.678;4.900;2023-05-23T11:06:38;5.88;;;1.23;;
74204;SDS011;62564;52.678;4.900;2023-05-23T11:09:16;6.45;;;1.52;;
74204;SDS011;62564;52.678;4.900;2023-05-23T11:14:14;6.75;;;1.13;;
74204;SDS011;62564;52.678;4.900;2023-05-23T11:16:41;6.28;;;1.30;;
74204;SDS011;62564;52.678;4.900;2023-05-23T11:21:54;5.50;;;1.40;;
74204;SDS011;62564;52.678;4.900;2023-05-23T11:24:27;5.45;;;1.50;;
74204;SDS011;62564;52.678;4.900;2023-05-23T11:27:13;5.03;;;1.77;;
74204;SDS011;62564;52.678;4.900;2023-05-23T11:29:38;5.33;;;2.00;;
74204;SDS011;62564;52.678;4.900;2023-05-23T11:32:10;5.47;;;2.15;;
74204;SDS011;62564;52.678;4.900;2023-05-23T11:39:28;6.53;;;1.60;;
74204;SDS011;62564;52.678;4.900;2023-05-23T11:41:59;4.30;;;1.50;;
74204;SDS011;62564;52.678;4.900;2023-05-23T11:44:25;6.38;;;1.85;;
74204;SDS011;62564;52.678;4.900;2023-05-23T11:47:06;5.40;;;1.65;;
74204;SDS011;62564;52.678;4.900;2023-05-23T11:49:35;6.28;;;1.60;;
74204;SDS011;62564;52.678;4.900;2023-05-23T11:52:02;6.97;;;1.63;;
74204;SDS011;62564;52.678;4.900;2023-05-23T11:54:27;6.18;;;1.73;;
74204;SDS011;62564;52.678;4.900;2023-05-23T11:56:53;7.30;;;2.28;;
74204;SDS011;62564;52.678;4.900;2023-05-23T11:59:20;5.18;;;1.65;;
74204;SDS011;62564;52.678;4.900;2023-05-23T12:01:45;4.93;;;2.15;;
74204;SDS011;62564;52.678;4.900;2023-05-23T12:04:11;5.43;;;1.50;;
74204;SDS011;62564;52.678;4.900;2023-05-23T12:06:39;6.15;;;1.10;;
74204;SDS011;62564;52.678;4.900;2023-05-23T12:09:06;4.40;;;1.55;;
74204;SDS011;62564;52.678;4.900;2023-05-23T12:11:32;4.88;;;1.67;;
74204;SDS011;62564;52.678;4.900;2023-05-23T12:14:02;7.35;;;2.38;;
74204;SDS011;62564;52.678;4.900;2023-05-23T12:16:34;6.72;;;1.70;;
74204;SDS011;62564;52.678;4.900;2023-05-23T12:19:00;6.85;;;1.90;;
74204;SDS011;62564;52.678;4.900;2023-05-23T12:24:29;5.18;;;1.40;;
74204;SDS011;62564;52.678;4.900;2023-05-23T12:26:57;6.53;;;1.73;;
74204;SDS011;62564;52.678;4.900;2023-05-23T12:29:30;7.13;;;1.85;;
74204;SDS011;62564;52.678;4.900;2023-05-23T12:31:57;7.45;;;2.95;;
74204;SDS011;62564;52.678;4.900;2023-05-23T12:34:23;5.88;;;1.95;;
74204;SDS011;62564;52.678;4.900;2023-05-23T12:36:48;6.32;;;2.28;;
74204;SDS011;62564;52.678;4.900;2023-05-23T12:39:14;5.90;;;2.37;;
74204;SDS011;62564;52.678;4.900;2023-05-23T12:41:43;6.38;;;1.45;;
74204;SDS011;62564;52.678;4.900;2023-05-23T12:44:08;5.60;;;1.95;;
74204;SDS011;62564;52.678;4.900;2023-05-23T12:46:34;5.97;;;1.10;;
74204;SDS011;62564;52.678;4.900;2023-05-23T12:48:59;5.27;;;2.00;;
74204;SDS011;62564;52.678;4.900;2023-05-23T12:51:25;6.97;;;1.90;;
74204;SDS011;62564;52.678;4.900;2023-05-23T12:53:50;5.47;;;2.13;;
74204;SDS011;62564;52.678;4.900;2023-05-23T12:56:16;7.10;;;1.20;;
74204;SDS011;62564;52.678;4.900;2023-05-23T12:58:41;4.13;;;1.67;;
74204;SDS011;62564;52.678;4.900;2023-05-23T13:01:07;6.78;;;1.10;;
74204;SDS011;62564;52.678;4.900;2023-05-23T13:03:33;6.78;;;1.27;;
74204;SDS011;62564;52.678;4.900;2023-05-23T13:05:58;6.13;;;1.60;;
74204;SDS011;62564;52.678;4.900;2023-05-23T13:08:24;5.60;;;1.67;;
74204;SDS011;62564;52.678;4.900;2023-05-23T13:10:51;5.28;;;1.83;;
74204;SDS011;62564;52.678;4.900;2023-05-23T13:13:17;5.32;;;1.73;;
74204;SDS011;62564;52.678;4.900;2023-05-23T13:15:43;6.03;;;1.67;;
74204;SDS011;62564;52.678;4.900;2023-05-23T13:18:09;6.93;;;2.05;;
74204;SDS011;62564;52.678;4.900;2023-05-23T13:20:34;5.77;;;1.47;;
74204;SDS011;62564;52.678;4.900;2023-05-23T13:22:59;6.97;;;1.58;;
74204;SDS011;62564;52.678;4.900;2023-05-23T13:25:25;4.50;;;1.47;;
74204;SDS011;62564;52.678;4.900;2023-05-23T13:27:50;4.75;;;1.40;;
74204;SDS011;62564;52.678;4.900;2023-05-23T13:30:17;5.63;;;1.80;;
74204;SDS011;62564;52.678;4.900;2023-05-23T13:32:42;6.35;;;1.63;;
74204;SDS011;62564;52.678;4.900;2023-05-23T13:35:08;5.72;;;1.40;;
74204;SDS011;62564;52.678;4.900;2023-05-23T13:37:33;5.80;;;1.88;;
74204;SDS011;62564;52.678;4.900;2023-05-23T13:40:00;6.20;;;1.10;;
74204;SDS011;62564;52.678;4.900;2023-05-23T13:42:26;3.22;;;1.00;;
74204;SDS011;62564;52.678;4.900;2023-05-23T13:44:51;4.43;;;1.00;;
74204;SDS011;62564;52.678;4.900;2023-05-23T13:47:16;4.43;;;1.13;;
74204;SDS011;62564;52.678;4.900;2023-05-23T13:49:42;6.28;;;1.63;;
74204;SDS011;62564;52.678;4.900;2023-05-23T13:52:07;4.63;;;1.08;;
74204;SDS011;62564;52.678;4.900;2023-05-23T13:54:32;5.88;;;1.92;;
74204;SDS011;62564;52.678;4.900;2023-05-23T13:56:58;6.90;;;1.83;;
74204;SDS011;62564;52.678;4.900;2023-05-23T13:59:27;5.32;;;2.28;;
74204;SDS011;62564;52.678;4.900;2023-05-23T14:01:52;5.03;;;1.05;;
74204;SDS011;62564;52.678;4.900;2023-05-23T14:04:18;6.07;;;1.60;;
74204;SDS011;62564;52.678;4.900;2023-05-23T14:06:43;5.57;;;1.35;;
74204;SDS011;62564;52.678;4.900;2023-05-23T14:09:09;6.13;;;1.15;;
74204;SDS011;62564;52.678;4.900;2023-05-23T14:11:35;4.63;;;1.38;;
74204;SDS011;62564;52.678;4.900;2023-05-23T14:14:00;6.03;;;2.17;;
74204;SDS011;62564;52.678;4.900;2023-05-23T14:16:25;6.73;;;1.60;;
74204;SDS011;62564;52.678;4.900;2023-05-23T14:18:51;5.17;;;1.47;;
74204;SDS011;62564;52.678;4.900;2023-05-23T14:21:16;4.70;;;1.07;;
74204;SDS011;62564;52.678;4.900;2023-05-23T14:23:41;4.63;;;1.33;;
74204;SDS011;62564;52.678;4.900;2023-05-23T14:26:07;7.10;;;1.23;;
74204;SDS011;62564;52.678;4.900;2023-05-23T14:28:32;5.77;;;1.33;;
74204;SDS011;62564;52.678;4.900;2023-05-23T14:30:57;5.82;;;1.92;;
74204;SDS011;62564;52.678;4.900;2023-05-23T14:33:23;5.25;;;1.50;;
74204;SDS011;62564;52.678;4.900;2023-05-23T14:35:49;5.40;;;1.17;;
74204;SDS011;62564;52.678;4.900;2023-05-23T14:38:15;5.43;;;1.20;;
74204;SDS011;62564;52.678;4.900;2023-05-23T14:40:40;4.32;;;1.10;;
74204;SDS011;62564;52.678;4.900;2023-05-23T14:43:05;4.17;;;1.03;;
74204;SDS011;62564;52.678;4.900;2023-05-23T14:45:31;4.95;;;1.15;;
74204;SDS011;62564;52.678;4.900;2023-05-23T14:47:56;3.80;;;0.80;;
74204;SDS011;62564;52.678;4.900;2023-05-23T14:50:22;6.88;;;1.15;;
74204;SDS011;62564;52.678;4.900;2023-05-23T14:52:47;5.80;;;2.17;;
74204;SDS011;62564;52.678;4.900;2023-05-23T14:55:12;5.73;;;1.73;;
74204;SDS011;62564;52.678;4.900;2023-05-23T14:57:38;3.73;;;0.70;;
74204;SDS011;62564;52.678;4.900;2023-05-23T15:00:03;5.10;;;1.30;;
74204;SDS011;62564;52.678;4.900;2023-05-23T15:02:30;4.40;;;1.00;;
74204;SDS011;62564;52.678;4.900;2023-05-23T15:04:56;6.15;;;1.45;;
74204;SDS011;62564;52.678;4.900;2023-05-23T15:07:21;4.80;;;1.38;;
74204;SDS011;62564;52.678;4.900;2023-05-23T15:09:47;3.55;;;1.27;;
74204;SDS011;62564;52.678;4.900;2023-05-23T15:12:12;4.18;;;1.88;;
74204;SDS011;62564;52.678;4.900;2023-05-23T15:14:39;4.90;;;1.27;;
74204;SDS011;62564;52.678;4.900;2023-05-23T15:17:05;5.22;;;1.73;;
74204;SDS011;62564;52.678;4.900;2023-05-23T15:19:36;4.53;;;1.55;;